Current Conditions
Thunderstorm
Conditions



Pressure
29.5 (inHG) - 998.92 (mb)
Visibility

8.0 (km) - 5.0 (miles)
Temperature
17  °C
Temperature
16  °C
Dewpoint
94  %
 Humidity
Wind Speed
8  km/h
4  kts
5  mph
2.2  m/s
Wind Direction
N
45°
E
90°
135°
S
180°
225°
W
270°
315°
 70°

East North
East
Airport Data
LIPI
Rivolto Air Base
Metar :LIPI 291555Z 07004KT 8000 -TS RA SCT025CB BKN030 17/16 Q0999 RMK OVC VIS MIN 6000S WIND THR06 09006KT WIND THR24 07003KT WHT
Thu 29th September 17:55 pm
Raw Metar Info
Raw METAR is the most common format in the world for the transmission of observational weather data. It is highly standardized through the International Civil Aviation Organization (ICAO), which allows it to be understood throughout most of the world.
API Info
Data Provided by
https://www.checkwx.com/weather/LIPI

Aviation Weather providing METAR, TAF, AIRMET, SIGMET and OUTLOOK Weather Reports
© Info
CSS/SVG/PHP scripts were developed by weather34 for use in the weather34 template © 2015-2022

Guide Info provided by Metar-Wikipedia